Time;durP1;ratioP1;P1;durP2;ratioP2;P2;SDS_P1;SDS_P2;PMS_P1;PMS_P2;Temp;Humidity;BMP_temperature;BMP_pressure;BME280_temperature;BME280_humidity;BME280_pressure;Samples;Min_cycle;Max_cycle;Signal;HPM_P1;HPM_P2
2022/12/28 00:01:59;;;;;;;17.13;8.77;;;;;;;1.68;100.00;98921.22;5088116;28;20508;-60
2022/12/28 00:04:25;;;;;;;18.65;8.18;;;;;;;1.69;100.00;98916.94;5089854;28;20106;-58
2022/12/28 00:07:09;;;;;;;18.00;8.52;;;;;;;1.63;100.00;98907.63;5071086;28;20081;-60
2022/12/28 00:09:35;;;;;;;19.00;8.85;;;;;;;1.63;100.00;98919.56;5096268;28;20150;-59
2022/12/28 00:12:20;;;;;;;16.92;8.02;;;;;;;1.65;100.00;98913.59;5094537;28;20123;-60
2022/12/28 00:14:45;;;;;;;18.38;8.70;;;;;;;1.61;100.00;98904.25;5106908;28;20044;-60
2022/12/28 00:17:11;;;;;;;16.17;7.90;;;;;;;1.69;100.00;98909.25;5085876;28;20054;-60
2022/12/28 00:19:37;;;;;;;15.18;8.52;;;;;;;1.74;100.00;98910.06;5097856;28;20036;-59
2022/12/28 00:22:03;;;;;;;15.82;8.00;;;;;;;1.34;100.00;98848.19;5095628;28;20040;-59
2022/12/28 00:24:29;;;;;;;15.70;7.93;;;;;;;1.75;100.00;98896.38;5102905;28;20372;-61
2022/12/28 00:26:55;;;;;;;17.20;8.43;;;;;;;1.53;100.00;98854.78;5105551;28;20070;-59
2022/12/28 00:29:22;;;;;;;17.95;9.27;;;;;;;1.65;100.00;98895.66;5093292;28;20040;-59
2022/12/28 00:31:49;;;;;;;16.88;8.70;;;;;;;1.61;100.00;98894.00;5109582;28;20125;-58
2022/12/28 00:34:15;;;;;;;15.30;7.85;;;;;;;1.62;100.00;98885.41;5094774;28;20605;-57
2022/12/28 00:36:41;;;;;;;18.23;8.15;;;;;;;1.60;100.00;98886.31;5110237;28;20048;-58
2022/12/28 00:39:26;;;;;;;13.50;8.05;;;;;;;1.59;100.00;98880.34;5096858;28;20032;-60
2022/12/28 00:42:11;;;;;;;16.98;8.63;;;;;;;1.64;100.00;98875.16;5099885;28;20101;-58
2022/12/28 00:44:56;;;;;;;18.80;8.60;;;;;;;1.64;100.00;98875.16;5092513;28;20036;-59
2022/12/28 00:47:21;;;;;;;16.17;7.93;;;;;;;1.65;100.00;98871.75;5099550;28;20047;-59
2022/12/28 00:49:47;;;;;;;16.33;7.40;;;;;;;1.64;100.00;98872.59;5090568;28;20046;-60
2022/12/28 00:52:13;;;;;;;17.92;8.13;;;;;;;1.63;100.00;98871.75;5100858;27;20062;-54
2022/12/28 00:54:39;;;;;;;14.65;8.25;;;;;;;1.60;100.00;98876.06;5093662;28;20036;-60
2022/12/28 00:57:05;;;;;;;14.52;7.43;;;;;;;1.65;100.00;98867.47;5088792;28;20500;-60
2022/12/28 01:00:27;;;;;;;13.60;7.40;;;;;;;1.69;100.00;98865.72;5095908;28;20067;-60
2022/12/28 01:03:12;;;;;;;15.05;7.63;;;;;;;1.40;100.00;98811.44;5110668;28;20561;-60
2022/12/28 01:05:56;;;;;;;16.73;7.82;;;;;;;1.70;100.00;98858.00;5107347;28;20031;-60
2022/12/28 01:08:22;;;;;;;17.35;8.10;;;;;;;1.68;100.00;98856.31;5098146;28;20056;-59
2022/12/28 01:11:25;;;;;;;15.38;7.07;;;;;;;1.69;100.00;98851.19;5108033;28;20035;-60
2022/12/28 01:14:14;;;;;;;13.77;6.60;;;;;;;1.70;100.00;98857.16;5107227;28;20077;-59
2022/12/28 01:16:58;;;;;;;16.02;7.72;;;;;;;1.69;100.00;98846.06;5106394;28;20036;-59
2022/12/28 01:19:24;;;;;;;14.10;6.68;;;;;;;1.70;100.00;98845.22;5092847;28;20086;-60
2022/12/28 01:22:46;;;;;;;14.57;7.43;;;;;;;1.72;100.00;98850.31;5108285;28;20043;-60
2022/12/28 01:25:13;;;;;;;14.75;7.07;;;;;;;1.72;100.00;98836.66;5102618;28;20043;-59
2022/12/28 01:27:39;;;;;;;12.55;7.07;;;;;;;1.72;100.00;98839.22;5066170;28;20040;-58
2022/12/28 01:30:42;;;;;;;14.25;6.60;;;;;;;1.72;100.00;98836.66;5098508;28;20040;-59
2022/12/28 01:33:08;;;;;;;14.68;6.60;;;;;;;1.70;100.00;98837.53;5086582;28;20521;-60
2022/12/28 01:35:35;;;;;;;12.95;7.28;;;;;;;1.69;100.00;98838.38;5090406;28;20101;-61
2022/12/28 01:38:38;;;;;;;12.18;6.07;;;;;;;1.73;100.00;98839.19;5094206;28;20035;-59
2022/12/28 01:41:13;;;;;;;16.90;7.55;;;;;;;1.73;100.00;98834.06;5090315;28;20038;-59
2022/12/28 01:44:23;;;;;;;15.02;7.20;;;;;;;1.74;100.00;98828.06;5077767;28;20040;-60
2022/12/28 01:46:53;;;;;;;14.90;6.63;;;;;;;1.59;100.00;98805.22;5069834;28;20044;-59
2022/12/28 01:49:33;;;;;;;15.83;7.03;;;;;;;1.76;100.00;98825.50;5080456;28;20040;-59
2022/12/28 01:52:07;;;;;;;15.30;6.90;;;;;;;1.74;100.00;98827.22;5105043;28;20714;-57
2022/12/28 01:54:38;;;;;;;12.68;6.60;;;;;;;1.77;100.00;98825.50;5075233;28;20064;-60
2022/12/28 01:57:04;;;;;;;14.82;6.35;;;;;;;1.59;100.00;98792.41;5069562;28;20036;-59
2022/12/28 01:59:32;;;;;;;11.07;6.15;;;;;;;1.77;100.00;98815.25;5078248;28;20036;-59
2022/12/28 02:01:58;;;;;;;13.75;6.88;;;;;;;1.80;100.00;98820.31;5105103;28;20066;-59
2022/12/28 02:04:25;;;;;;;12.80;6.35;;;;;;;1.84;100.00;98821.09;5111380;28;20541;-59
2022/12/28 02:07:09;;;;;;;19.15;6.85;;;;;;;1.87;100.00;98810.84;5093360;28;20127;-60
2022/12/28 02:09:41;;;;;;;13.55;6.75;;;;;;;1.60;100.00;98773.63;5097636;28;20101;-60
2022/12/28 02:12:45;;;;;;;14.82;6.95;;;;;;;1.87;100.00;98818.53;5088535;28;20142;-61
2022/12/28 02:15:32;;;;;;;13.80;6.85;;;;;;;1.84;100.00;98814.28;5098988;28;20562;-59
2022/12/28 02:18:17;;;;;;;13.43;6.93;;;;;;;1.87;100.00;98821.09;5107935;28;20780;-58
2022/12/28 02:21:17;;;;;;;14.25;6.80;;;;;;;1.86;100.00;98812.53;5078862;28;20054;-59
2022/12/28 02:24:15;;;;;;;12.65;6.68;;;;;;;1.87;100.00;98813.41;5088068;28;20122;-59
2022/12/28 02:27:55;;;;;;;12.50;6.43;;;;;;;1.82;100.00;98813.47;5056273;28;20428;-58
2022/12/28 02:30:23;;;;;;;12.38;6.47;;;;;;;1.82;100.00;98820.31;5060921;28;20061;-58
2022/12/28 02:33:45;;;;;;;13.20;6.53;;;;;;;1.84;100.00;98814.28;5107848;28;20035;-59
2022/12/28 02:36:50;;;;;;;12.68;6.65;;;;;;;1.82;100.00;98810.91;5100950;28;20503;-58
2022/12/28 02:39:31;;;;;;;14.55;6.47;;;;;;;1.80;100.00;98810.06;5092502;28;20047;-60
2022/12/28 02:41:57;;;;;;;10.55;6.80;;;;;;;1.80;100.00;98809.22;5094330;27;20074;-58
2022/12/28 02:50:05;;;;;;;15.38;7.20;;;;;;;1.79;100.00;98807.50;5079458;28;20044;-61
2022/12/28 02:52:55;;;;;;;15.82;7.15;;;;;;;1.78;100.00;98803.28;5101065;28;20078;-59
2022/12/28 02:58:35;;;;;;;14.13;6.40;;;;;;;1.73;100.00;98807.63;5101145;28;20599;-59
2022/12/28 03:01:38;;;;;;;16.20;6.95;;;;;;;1.73;100.00;98803.31;5093435;28;20154;-60
2022/12/28 03:04:41;;;;;;;16.02;7.38;;;;;;;1.73;100.00;98800.75;5088557;28;20456;-59
2022/12/28 03:10:25;;;;;;;15.93;7.97;;;;;;;1.72;100.00;98799.09;5075315;28;20048;-59
2022/12/28 03:16:20;;;;;;;12.27;6.55;;;;;;;1.72;100.00;98803.34;5074237;28;20430;-60
2022/12/28 03:33:39;;;;;;;14.80;8.02;;;;;;;1.41;100.00;98744.84;5075017;28;20169;-58
2022/12/28 03:36:19;;;;;;;;;;;;;;;1.69;100.00;98788.84;5071866;28;20075;-60
2022/12/28 03:40:08;;;;;;;13.27;7.17;;;;;;;1.67;100.00;98794.00;5090180;28;19952;-58
2022/12/28 03:46:03;;;;;;;16.48;7.88;;;;;;;1.70;100.00;98782.88;5070475;28;20117;-60
2022/12/28 03:48:32;;;;;;;16.33;7.40;;;;;;;1.35;100.00;98731.28;5067741;28;20048;-59
2022/12/28 03:50:58;;;;;;;15.43;7.72;;;;;;;1.67;100.00;98778.63;5078756;28;20047;-59
2022/12/28 03:53:49;;;;;;;13.95;7.78;;;;;;;1.71;100.00;98784.56;5087999;28;20117;-61
2022/12/28 03:56:45;;;;;;;17.60;8.20;;;;;;;1.74;100.00;98779.38;5076989;28;20530;-60
2022/12/28 03:59:48;;;;;;;17.35;8.75;;;;;;;1.74;100.00;98781.09;5077263;28;20044;-61
2022/12/28 04:02:32;;;;;;;16.20;8.25;;;;;;;1.72;100.00;98773.47;5089516;28;20052;-60
2022/12/28 04:04:58;;;;;;;16.10;8.23;;;;;;;1.69;100.00;98764.09;5090156;28;20063;-60
2022/12/28 04:07:24;;;;;;;16.60;8.57;;;;;;;1.68;100.00;98767.50;5101691;28;20047;-58
2022/12/28 04:09:50;;;;;;;13.55;7.85;;;;;;;1.68;100.00;98771.78;5082248;28;20056;-59
2022/12/28 04:12:17;;;;;;;17.95;7.70;;;;;;;1.69;100.00;98776.91;5075446;28;20136;-60
2022/12/28 04:15:02;;;;;;;22.98;8.10;;;;;;;1.68;100.00;98772.63;5105225;28;20036;-60
2022/12/28 04:17:30;;;;;;;19.60;8.70;;;;;;;1.67;100.00;98772.69;5099824;28;20113;-60
2022/12/28 04:20:15;;;;;;;18.65;8.95;;;;;;;1.65;100.00;98770.13;5127615;27;20525;-59
2022/12/28 04:22:42;;;;;;;18.40;8.93;;;;;;;1.65;100.00;98775.25;5093789;28;20533;-61
2022/12/28 04:25:08;;;;;;;16.70;7.82;;;;;;;1.66;100.00;98760.72;5110991;28;20040;-60
2022/12/28 04:27:52;;;;;;;14.70;7.70;;;;;;;1.66;100.00;98764.13;5092689;28;20539;-60
2022/12/28 04:30:47;;;;;;;18.35;8.43;;;;;;;1.58;100.00;98757.41;5090481;28;20055;-60
2022/12/28 04:33:13;;;;;;;20.60;8.40;;;;;;;1.52;100.00;98750.66;5085804;28;20084;-60
2022/12/28 04:35:42;;;;;;;14.00;7.90;;;;;;;1.68;100.00;98772.63;5104311;28;20052;-59
2022/12/28 04:38:07;;;;;;;17.40;8.95;;;;;;;1.68;100.00;98770.06;5076825;28;20039;-60
2022/12/28 04:40:33;;;;;;;16.38;8.00;;;;;;;1.67;100.00;98765.81;5106022;28;20031;-58
2022/12/28 04:42:59;;;;;;;16.90;7.95;;;;;;;1.67;100.00;98760.69;5104056;28;20035;-59
2022/12/28 04:45:53;;;;;;;18.25;7.88;;;;;;;1.71;100.00;98761.50;5110576;28;20070;-59
2022/12/28 04:48:21;;;;;;;17.98;8.27;;;;;;;1.73;100.00;98761.50;5096721;28;20032;-60
2022/12/28 04:51:06;;;;;;;14.43;7.88;;;;;;;1.74;100.00;98764.03;5094423;28;20043;-61
2022/12/28 04:53:36;;;;;;;14.43;7.85;;;;;;;1.73;100.00;98759.75;5101167;28;20161;-62
2022/12/28 04:56:22;;;;;;;22.42;9.05;;;;;;;1.75;100.00;98752.06;5087462;28;20044;-59
2022/12/28 04:58:51;;;;;;;17.73;8.30;;;;;;;1.75;100.00;98749.50;5100274;28;20086;-61
2022/12/28 05:01:18;;;;;;;20.02;9.30;;;;;;;1.74;100.00;98758.03;5102765;28;20055;-59
2022/12/28 05:03:45;;;;;;;14.30;7.80;;;;;;;1.71;100.00;98756.38;5093913;28;20074;-62
2022/12/28 05:06:14;;;;;;;14.73;7.93;;;;;;;1.72;100.00;98752.97;5103859;27;20072;-54
2022/12/28 05:08:59;;;;;;;18.98;8.77;;;;;;;1.71;100.00;98751.25;5073245;28;20126;-62
2022/12/28 05:11:27;;;;;;;15.98;8.20;;;;;;;1.72;100.00;98758.09;5103033;28;20035;-61
2022/12/28 05:14:11;;;;;;;19.63;9.45;;;;;;;1.71;100.00;98758.94;5097015;28;20431;-61
2022/12/28 05:16:37;;;;;;;18.05;8.82;;;;;;;1.53;100.00;98736.97;5107204;28;20412;-60
2022/12/28 05:19:03;;;;;;;17.80;8.27;;;;;;;1.66;100.00;98765.84;5089012;28;20066;-60
2022/12/28 05:21:29;;;;;;;17.77;8.38;;;;;;;1.64;100.00;98765.88;5091483;28;20035;-61
2022/12/28 05:24:13;;;;;;;18.55;8.43;;;;;;;1.63;100.00;98756.47;5071643;28;20039;-62
2022/12/28 05:26:39;;;;;;;18.95;8.40;;;;;;;1.41;100.00;98721.81;5072822;28;20036;-60
2022/12/28 05:29:05;;;;;;;19.33;8.60;;;;;;;1.57;100.00;98753.19;5092512;28;20039;-61
2022/12/28 05:31:31;;;;;;;15.70;8.70;;;;;;;1.39;100.00;98726.09;5091100;28;20583;-61
2022/12/28 05:33:57;;;;;;;18.67;8.48;;;;;;;1.59;100.00;98759.97;5102500;28;20568;-61
2022/12/28 05:36:41;;;;;;;17.05;9.07;;;;;;;1.55;100.00;98757.47;5103285;28;20039;-60
2022/12/28 05:39:07;;;;;;;18.77;9.02;;;;;;;1.55;100.00;98760.03;5102158;28;20051;-59
2022/12/28 05:41:33;;;;;;;16.50;8.30;;;;;;;1.54;100.00;98760.88;5122831;27;20063;-63
2022/12/28 05:43:59;;;;;;;18.85;8.27;;;;;;;1.53;100.00;98762.59;5095848;28;20032;-61
2022/12/28 05:46:44;;;;;;;15.90;8.60;;;;;;;1.51;100.00;98768.63;5092923;28;20036;-62
2022/12/28 05:49:28;;;;;;;15.60;8.23;;;;;;;1.48;100.00;98761.81;5073032;28;20051;-62
2022/12/28 05:51:54;;;;;;;19.33;8.63;;;;;;;1.43;100.00;98768.69;5097129;28;20044;-62
2022/12/28 05:54:38;;;;;;;15.80;8.27;;;;;;;1.46;100.00;98772.94;5102276;28;20065;-62
2022/12/28 05:57:04;;;;;;;19.02;9.40;;;;;;;1.48;100.00;98772.06;5089464;28;20057;-62
2022/12/28 05:59:49;;;;;;;18.23;8.73;;;;;;;1.51;100.00;98771.19;5090473;28;20036;-62
2022/12/28 06:02:33;;;;;;;20.58;9.25;;;;;;;1.48;100.00;98766.94;5088116;28;20035;-62
2022/12/28 06:04:59;;;;;;;23.23;9.93;;;;;;;1.51;100.00;98771.19;5088444;28;20122;-63
2022/12/28 06:07:43;;;;;;;20.40;9.68;;;;;;;1.56;100.00;98779.66;5089422;28;20560;-61
2022/12/28 06:10:28;;;;;;;19.38;9.38;;;;;;;1.54;100.00;98776.25;5078544;28;20538;-62
2022/12/28 06:12:54;;;;;;;22.88;10.15;;;;;;;1.53;100.00;98774.56;5088742;28;20043;-62
2022/12/28 06:15:20;;;;;;;23.10;9.70;;;;;;;1.52;100.00;98773.69;5071715;28;20040;-62
2022/12/28 06:17:46;;;;;;;17.33;9.13;;;;;;;1.51;100.00;98781.44;5090003;28;20431;-62
2022/12/28 06:20:12;;;;;;;20.23;9.70;;;;;;;1.48;100.00;98778.88;5108149;28;20039;-61
2022/12/28 06:22:38;;;;;;;23.35;10.10;;;;;;;1.49;100.00;98783.16;5072815;28;20051;-61
2022/12/28 06:25:22;;;;;;;26.23;9.55;;;;;;;1.47;100.00;98777.19;5100455;28;20043;-62
2022/12/28 06:28:07;;;;;;;17.98;9.13;;;;;;;1.45;100.00;98782.34;5073439;28;20470;-62
2022/12/28 06:30:52;;;;;;;23.05;11.15;;;;;;;1.42;100.00;98790.03;5088787;28;20043;-62
2022/12/28 06:33:37;;;;;;;19.73;9.93;;;;;;;1.43;100.00;98784.06;5088787;28;20555;-61
2022/12/28 06:36:03;;;;;;;21.80;9.82;;;;;;;1.38;100.00;98780.72;5093559;28;20074;-61
2022/12/28 06:39:07;;;;;;;20.00;9.20;;;;;;;1.40;100.00;98781.56;5095380;28;20053;-62
2022/12/28 06:41:51;;;;;;;22.58;9.73;;;;;;;1.41;100.00;98784.97;5100544;28;20099;-63
2022/12/28 06:44:17;;;;;;;20.73;10.02;;;;;;;1.44;100.00;98788.31;5091659;28;20065;-66
2022/12/28 06:47:02;;;;;;;21.38;10.25;;;;;;;1.49;100.00;98785.72;5089709;28;20118;-64
2022/12/28 06:49:27;;;;;;;21.58;10.20;;;;;;;1.51;100.00;98789.97;5087176;28;20065;-64
2022/12/28 06:51:53;;;;;;;20.63;9.52;;;;;;;1.52;100.00;98794.19;5106964;28;20036;-64
2022/12/28 06:54:19;;;;;;;24.55;11.23;;;;;;;1.36;100.00;98767.06;5091526;28;20050;-64
2022/12/28 06:57:23;;;;;;;25.55;11.25;;;;;;;1.50;100.00;98792.53;5079011;28;20058;-65
2022/12/28 06:59:49;;;;;;;21.00;10.27;;;;;;;1.47;100.00;98795.09;5099140;28;20044;-64
2022/12/28 07:02:52;;;;;;;22.85;10.20;;;;;;;1.46;100.00;98793.44;5094569;28;20565;-61
2022/12/28 07:05:18;;;;;;;24.45;10.27;;;;;;;1.48;100.00;98792.53;5082237;28;20051;-62
2022/12/28 07:07:44;;;;;;;23.08;10.45;;;;;;;1.49;100.00;98790.81;5089757;28;20031;-62
2022/12/28 07:10:11;;;;;;;25.75;11.02;;;;;;;1.54;100.00;98794.19;5078136;28;20042;-61
2022/12/28 07:12:39;;;;;;;29.85;12.60;;;;;;;1.56;100.00;98795.88;5074144;28;20043;-66
2022/12/28 07:15:23;;;;;;;22.98;11.43;;;;;;;1.59;100.00;98788.13;5078336;28;20040;-63
2022/12/28 07:18:08;;;;;;;26.33;11.65;;;;;;;1.45;100.00;98763.56;5103214;28;20047;-62
2022/12/28 07:20:57;;;;;;;26.17;10.82;;;;;;;1.65;100.00;98787.22;5086779;28;20043;-63
2022/12/28 07:23:42;;;;;;;22.15;10.75;;;;;;;1.73;100.00;98798.19;5070843;28;20193;-64
2022/12/28 07:26:30;;;;;;;23.23;11.02;;;;;;;1.75;100.00;98793.06;5075424;28;20040;-62
2022/12/28 07:29:15;;;;;;;24.85;11.30;;;;;;;1.75;100.00;98795.63;5086814;28;20181;-65
2022/12/28 07:32:00;;;;;;;23.17;11.38;;;;;;;1.77;100.00;98796.44;5099904;28;20058;-63
2022/12/28 07:35:02;;;;;;;24.42;11.68;;;;;;;1.75;100.00;98796.47;5083506;28;20146;-63
2022/12/28 07:37:29;;;;;;;25.05;11.63;;;;;;;1.73;100.00;98793.06;5102215;28;20036;-63
2022/12/28 07:39:55;;;;;;;26.25;12.25;;;;;;;1.77;100.00;98801.56;5085410;28;20049;-62
2022/12/28 07:42:21;;;;;;;25.27;11.70;;;;;;;1.68;100.00;98782.88;5099046;28;20046;-63
2022/12/28 07:44:47;;;;;;;23.25;11.90;;;;;;;1.78;100.00;98798.16;5082122;28;20047;-61
2022/12/28 07:47:13;;;;;;;25.20;11.30;;;;;;;1.69;100.00;98773.47;5107534;28;20658;-61
2022/12/28 07:49:39;;;;;;;26.38;11.60;;;;;;;1.87;100.00;98800.59;5060599;28;20040;-63
2022/12/28 07:52:24;;;;;;;23.88;11.20;;;;;;;1.91;100.00;98810.78;5092982;28;20145;-61
2022/12/28 07:54:50;;;;;;;26.70;12.40;;;;;;;1.89;100.00;98796.25;5098966;28;20039;-60
2022/12/28 07:57:16;;;;;;;26.55;12.25;;;;;;;1.94;100.00;98797.91;5097535;28;20040;-60
2022/12/28 07:59:42;;;;;;;24.27;11.77;;;;;;;1.98;100.00;98801.28;5087642;28;20074;-71
2022/12/28 08:02:26;;;;;;;24.38;11.88;;;;;;;2.01;100.00;98796.94;5093900;28;20062;-53
2022/12/28 08:05:10;;;;;;;25.92;11.77;;;;;;;2.06;100.00;98797.72;5100101;28;20036;-61
2022/12/28 08:07:36;;;;;;;23.17;12.20;;;;;;;1.99;100.00;98785.03;5069213;28;20036;-59
2022/12/28 08:10:39;;;;;;;21.92;12.02;;;;;;;2.08;100.00;98793.44;5116074;27;20096;-59
2022/12/28 08:13:05;;;;;;;27.33;11.82;;;;;;;2.07;100.00;98789.19;5095779;28;20051;-62
2022/12/28 08:15:31;;;;;;;23.17;12.00;;;;;;;2.12;100.00;98791.66;5093167;28;20481;-51
2022/12/28 08:17:57;;;;;;;25.58;13.20;;;;;;;2.15;100.00;98790.78;5086872;28;20440;-61
2022/12/28 08:20:23;;;;;;;24.40;12.23;;;;;;;2.18;100.00;98780.47;5087879;28;20038;-62
2022/12/28 08:22:49;;;;;;;25.95;11.75;;;;;;;2.11;100.00;98780.56;5088393;28;20047;-62
2022/12/28 08:25:15;;;;;;;26.38;12.38;;;;;;;2.09;100.00;98787.41;5088862;28;20029;-61
2022/12/28 08:28:00;;;;;;;23.15;11.60;;;;;;;2.10;100.00;98788.28;5083498;28;20055;-62
2022/12/28 08:31:05;;;;;;;24.45;12.23;;;;;;;2.10;100.00;98790.84;5088400;28;20040;-61
2022/12/28 08:33:31;;;;;;;25.67;11.95;;;;;;;2.16;100.00;98798.44;5088618;28;20044;-61
2022/12/28 08:36:16;;;;;;;27.83;12.77;;;;;;;2.19;100.00;98783.03;5087273;28;20063;-62
2022/12/28 08:38:43;;;;;;;29.55;13.50;;;;;;;2.24;100.00;98795.78;5078718;28;20028;-64
2022/12/28 08:41:28;;;;;;;27.30;12.60;;;;;;;2.25;100.00;98794.91;5092447;28;20074;-63
2022/12/28 08:43:54;;;;;;;27.80;13.18;;;;;;;2.11;100.00;98775.44;5098102;28;20051;-63
2022/12/28 08:46:33;;;;;;;25.65;13.32;;;;;;;2.31;100.00;98800.75;5072451;28;20032;-61
2022/12/28 08:48:59;;;;;;;25.52;11.80;;;;;;;2.30;100.00;98801.66;5065450;28;20055;-63
2022/12/28 08:51:27;;;;;;;28.75;12.32;;;;;;;2.34;100.00;98802.44;5092584;28;20036;-62
2022/12/28 08:53:53;;;;;;;29.40;12.10;;;;;;;2.18;100.00;98783.88;5092135;28;20131;-58
2022/12/28 08:56:39;;;;;;;25.63;11.75;;;;;;;2.30;100.00;98806.78;5072152;28;20173;-62
2022/12/28 08:59:05;;;;;;;23.30;11.75;;;;;;;2.33;100.00;98804.16;5083123;28;20093;-62
2022/12/28 09:01:34;;;;;;;22.65;11.25;;;;;;;2.35;100.00;98805.00;5107940;28;20060;-61
2022/12/28 09:04:00;;;;;;;23.98;11.57;;;;;;;2.41;100.00;98802.31;5090690;28;20085;-61
2022/12/28 09:06:30;;;;;;;28.33;12.93;;;;;;;2.41;100.00;98797.19;5111221;28;20063;-61
2022/12/28 09:09:15;;;;;;;25.10;11.45;;;;;;;2.41;100.00;98811.72;5101028;28;20040;-62
2022/12/28 09:11:59;;;;;;;26.40;11.63;;;;;;;2.43;100.00;98807.44;5087828;28;20514;-61
2022/12/28 09:14:25;;;;;;;25.08;12.13;;;;;;;2.24;100.00;98776.09;5094337;28;20556;-61
2022/12/28 09:16:52;;;;;;;23.70;11.50;;;;;;;2.42;100.00;98795.47;5110958;28;20041;-64
2022/12/28 09:19:18;;;;;;;24.10;11.90;;;;;;;2.28;100.00;98769.19;5097983;28;20050;-62
2022/12/28 09:21:47;;;;;;;24.52;11.57;;;;;;;2.45;100.00;98790.31;5091544;28;20122;-63
2022/12/28 09:24:14;;;;;;;24.38;12.30;;;;;;;2.49;100.00;98791.94;5093265;28;20047;-61
2022/12/28 09:26:40;;;;;;;25.42;11.55;;;;;;;2.51;100.00;98792.78;5088784;28;20112;-62
2022/12/28 09:29:08;;;;;;;24.17;12.13;;;;;;;2.50;100.00;98791.94;5079057;28;20070;-61
2022/12/28 09:31:52;;;;;;;25.00;13.32;;;;;;;2.38;100.00;98775.88;5090433;28;20067;-59
2022/12/28 09:34:18;;;;;;;28.85;14.20;;;;;;;2.52;100.00;98795.28;5091536;28;20140;-61
2022/12/28 09:37:02;;;;;;;28.10;14.07;;;;;;;2.51;100.00;98795.34;5091624;28;20138;-63
2022/12/28 09:39:28;;;;;;;29.80;13.48;;;;;;;2.55;100.00;98794.41;5092460;28;20070;-60
2022/12/28 09:42:20;;;;;;;28.02;13.93;;;;;;;2.60;100.00;98797.75;5110520;28;20054;-62
2022/12/28 09:45:08;;;;;;;26.58;13.32;;;;;;;2.46;100.00;98766.34;5096269;28;20031;-63
2022/12/28 09:47:43;;;;;;;32.17;13.48;;;;;;;2.69;100.00;98795.03;5111765;27;20042;-61
2022/12/28 09:50:12;;;;;;;26.88;13.80;;;;;;;2.70;100.00;98799.28;5046958;28;20089;-62
2022/12/28 09:52:58;;;;;;;34.60;15.35;;;;;;;2.71;100.00;98800.13;5091190;28;20052;-61
2022/12/28 09:55:25;;;;;;;28.73;13.80;;;;;;;2.68;100.00;98800.16;5099874;28;20090;-61
2022/12/28 09:57:58;;;;;;;27.83;13.82;;;;;;;2.66;100.00;98797.66;5111325;28;20130;-61
2022/12/28 10:00:27;;;;;;;33.55;15.63;;;;;;;2.44;100.00;98773.22;5096069;28;20063;-62
2022/12/28 10:03:15;;;;;;;32.80;16.35;;;;;;;2.60;100.00;98802.03;5089761;28;20036;-61
2022/12/28 10:05:40;;;;;;;36.80;17.65;;;;;;;2.62;100.00;98800.31;5103055;28;20572;-60
2022/12/28 10:08:10;;;;;;;34.10;16.70;;;;;;;2.64;100.00;98801.09;5109961;28;20047;-60
2022/12/28 10:10:54;;;;;;;38.28;17.63;;;;;;;2.65;100.00;98802.81;5106562;28;20062;-61
2022/12/28 10:13:39;;;;;;;31.17;15.27;;;;;;;2.67;100.00;98807.03;5070053;28;20561;-60
2022/12/28 10:16:06;;;;;;;36.10;16.50;;;;;;;2.70;100.00;98813.84;5100336;28;20043;-60
2022/12/28 10:18:50;;;;;;;32.10;15.45;;;;;;;2.68;100.00;98810.44;5126427;27;20032;-60
2022/12/28 10:21:35;;;;;;;36.83;16.55;;;;;;;2.70;100.00;98809.56;5070161;28;20063;-60
2022/12/28 10:24:05;;;;;;;27.40;15.20;;;;;;;2.55;100.00;98786.72;5068697;28;20040;-60
2022/12/28 10:26:49;;;;;;;31.02;15.27;;;;;;;2.58;100.00;98783.25;5105695;28;20046;-60
2022/12/28 10:29:18;;;;;;;32.25;15.18;;;;;;;2.81;100.00;98819.63;5070887;28;20058;-61
2022/12/28 10:32:02;;;;;;;29.17;15.43;;;;;;;2.78;100.00;98820.53;5093849;28;20599;-60
2022/12/28 10:34:30;;;;;;;33.53;15.13;;;;;;;2.77;100.00;98816.28;5074793;28;20043;-60
2022/12/28 10:37:07;;;;;;;34.00;17.00;;;;;;;2.80;100.00;98829.06;5092147;28;20054;-60
2022/12/28 10:39:33;;;;;;;30.98;14.70;;;;;;;2.78;100.00;98819.66;5140935;27;20048;-60
2022/12/28 10:42:19;;;;;;;32.97;14.32;;;;;;;2.76;100.00;98822.28;5109773;28;20395;-60
2022/12/28 10:44:47;;;;;;;33.28;15.93;;;;;;;2.77;100.00;98821.41;5088402;28;20054;-61
2022/12/28 10:47:43;;;;;;;37.05;16.20;;;;;;;2.83;100.00;98816.16;5090068;28;20032;-61
2022/12/28 10:50:43;;;;;;;34.35;14.38;;;;;;;2.84;100.00;98809.31;5068843;28;20080;-61
2022/12/28 10:53:38;;;;;;;30.80;16.23;;;;;;;2.85;100.00;98811.84;5110169;28;20031;-61
2022/12/28 10:56:12;;;;;;;31.83;15.05;;;;;;;2.81;100.00;98814.50;5074596;28;20090;-61
2022/12/28 10:59:11;;;;;;;31.00;15.82;;;;;;;2.79;100.00;98819.66;5089817;28;20135;-61
2022/12/28 11:02:14;;;;;;;30.73;14.57;;;;;;;2.78;100.00;98820.53;5090143;28;20531;-61
2022/12/28 11:04:58;;;;;;;23.63;12.13;;;;;;;2.78;100.00;98814.53;5088073;28;20044;-62
2022/12/28 11:07:44;;;;;;;29.42;12.77;;;;;;;2.75;100.00;98818.03;5088377;28;20511;-62
2022/12/28 11:10:47;;;;;;;28.58;12.85;;;;;;;2.77;100.00;98821.41;5090383;28;20523;-60
2022/12/28 11:13:19;;;;;;;26.40;12.95;;;;;;;2.75;100.00;98814.59;5088089;28;20090;-62
2022/12/28 11:15:45;;;;;;;24.45;12.65;;;;;;;2.75;100.00;98819.72;5090296;28;20051;-62
2022/12/28 11:18:15;;;;;;;22.65;10.98;;;;;;;2.72;100.00;98825.75;5089344;28;20368;-62
2022/12/28 11:20:44;;;;;;;30.75;13.55;;;;;;;2.63;100.00;98823.34;5088970;28;20115;-60
2022/12/28 11:23:16;;;;;;;29.43;12.40;;;;;;;2.63;100.00;98823.34;5089365;28;20570;-61
2022/12/28 11:25:42;;;;;;;26.08;12.98;;;;;;;2.47;100.00;98817.63;5104216;28;20578;-62
2022/12/28 11:28:19;;;;;;;29.17;13.27;;;;;;;2.42;100.00;98803.16;5089797;28;20232;-62
2022/12/28 11:31:04;;;;;;;27.50;13.30;;;;;;;2.55;100.00;98833.75;5053799;28;20590;-61
2022/12/28 11:33:52;;;;;;;25.55;12.90;;;;;;;2.58;100.00;98839.69;5088929;28;20051;-61
2022/12/28 11:36:55;;;;;;;25.20;11.90;;;;;;;2.60;100.00;98840.53;5067808;28;20059;-61
2022/12/28 11:39:24;;;;;;;29.38;12.68;;;;;;;2.64;100.00;98844.72;5075094;28;20040;-62
2022/12/28 11:41:55;;;;;;;27.42;12.70;;;;;;;2.59;100.00;98837.09;5077489;28;20582;-62
2022/12/28 11:44:39;;;;;;;28.30;12.20;;;;;;;2.62;100.00;98842.16;5080305;28;20031;-61
2022/12/28 11:47:20;;;;;;;28.40;13.32;;;;;;;2.61;100.00;98845.63;5109448;28;20664;-61
2022/12/28 11:49:46;;;;;;;26.60;12.48;;;;;;;2.60;100.00;98837.94;5109147;28;20059;-56
2022/12/28 11:52:15;;;;;;;27.73;12.88;;;;;;;2.59;100.00;98847.38;5093233;28;20047;-61
2022/12/28 11:55:21;;;;;;;26.35;11.63;;;;;;;2.59;100.00;98842.22;5095687;28;20043;-63
2022/12/28 11:57:47;;;;;;;26.35;12.63;;;;;;;2.59;100.00;98847.38;5092808;28;20465;-61
2022/12/28 12:00:17;;;;;;;26.38;12.93;;;;;;;2.61;100.00;98837.09;5087616;28;20139;-61
2022/12/28 12:02:59;;;;;;;22.52;11.15;;;;;;;2.39;100.00;98806.63;5088644;28;20078;-61
2022/12/28 12:05:35;;;;;;;21.13;10.30;;;;;;;2.57;100.00;98841.41;5104405;28;20516;-62
2022/12/28 12:08:11;;;;;;;24.65;12.18;;;;;;;2.55;100.00;98845.72;5088837;28;20503;-62
2022/12/28 12:10:38;;;;;;;23.25;12.43;;;;;;;2.56;100.00;98852.56;5101548;28;20100;-62
2022/12/28 12:13:22;;;;;;;22.38;11.60;;;;;;;2.58;100.00;98860.22;5116434;27;20522;-61
2022/12/28 12:16:07;;;;;;;24.38;10.48;;;;;;;2.48;100.00;98855.22;5088839;28;20036;-61
2022/12/28 12:18:48;;;;;;;22.90;10.93;;;;;;;2.52;100.00;98862.00;5090757;28;20157;-62
2022/12/28 12:21:42;;;;;;;27.73;12.05;;;;;;;2.53;100.00;98865.41;5092424;28;20094;-61
2022/12/28 12:24:36;;;;;;;23.10;11.48;;;;;;;2.46;100.00;98866.41;5090330;28;20043;-61
2022/12/28 12:27:13;;;;;;;25.67;11.05;;;;;;;2.23;100.00;98846.22;5083819;28;20401;-62
2022/12/28 12:30:17;;;;;;;22.02;10.23;;;;;;;2.35;100.00;98869.13;5085396;28;20074;-62
2022/12/28 12:32:42;;;;;;;21.70;11.18;;;;;;;2.28;100.00;98872.63;5101304;28;20043;-62
2022/12/28 12:35:13;;;;;;;18.73;8.88;;;;;;;1.85;100.00;98812.56;5101451;28;20043;-63
2022/12/28 12:37:55;;;;;;;21.25;9.90;;;;;;;2.17;100.00;98882.19;5096491;28;20050;-61
2022/12/28 12:40:58;;;;;;;16.35;7.78;;;;;;;2.11;100.00;98883.09;5071035;28;20122;-61
2022/12/28 12:44:03;;;;;;;20.58;9.13;;;;;;;2.11;100.00;98890.81;5091148;28;20122;-61